Terminal Aerodrome Forecast
Issued by NWS

Home | Current Version | Previous Version | Text Only | Print | Product List | Glossary On
Versions: 1 2 3 4 5 6 7 8 9 10 11 12 13 14 15 16 17
000
FTUS43 KAPX 201100
TAFTVC
TAF
KTVC 201125Z 2012/2112 22004KT P6SM SCT025 OVC060
     FM201500 31007KT P6SM VCSH OVC025
     FM201800 32008KT 6SM -DZ BR OVC012
     FM210200 34009KT 6SM -DZ BR OVC012=

USA.gov is the U.S. government's official web portal to all federal, state and local government web resources and services.